sensor_id;sensor_type;location;lat;lon;timestamp;P1;durP1;ratioP1;P2;durP2;ratioP2
12818;SDS011;6474;53.474;9.894;2024-02-26T00:00:06;0.67;;;0.67;;
12818;SDS011;6474;53.474;9.894;2024-02-26T00:02:36;0.60;;;0.60;;
12818;SDS011;6474;53.474;9.894;2024-02-26T00:05:06;0.30;;;0.30;;
12818;SDS011;6474;53.474;9.894;2024-02-26T00:07:36;0.63;;;0.63;;
12818;SDS011;6474;53.474;9.894;2024-02-26T00:10:05;0.63;;;0.63;;
12818;SDS011;6474;53.474;9.894;2024-02-26T00:12:38;8.40;;;0.90;;
12818;SDS011;6474;53.474;9.894;2024-02-26T00:15:07;0.77;;;0.73;;
12818;SDS011;6474;53.474;9.894;2024-02-26T00:17:37;0.50;;;0.50;;
12818;SDS011;6474;53.474;9.894;2024-02-26T00:20:08;0.70;;;0.70;;
12818;SDS011;6474;53.474;9.894;2024-02-26T00:22:38;0.70;;;0.70;;
12818;SDS011;6474;53.474;9.894;2024-02-26T00:25:06;0.57;;;0.57;;
12818;SDS011;6474;53.474;9.894;2024-02-26T00:27:34;0.70;;;0.70;;
12818;SDS011;6474;53.474;9.894;2024-02-26T00:30:04;0.83;;;0.80;;
12818;SDS011;6474;53.474;9.894;2024-02-26T00:32:33;0.73;;;0.73;;
12818;SDS011;6474;53.474;9.894;2024-02-26T00:35:00;0.60;;;0.60;;
12818;SDS011;6474;53.474;9.894;2024-02-26T00:37:29;0.70;;;0.70;;
12818;SDS011;6474;53.474;9.894;2024-02-26T00:39:58;0.70;;;0.70;;
12818;SDS011;6474;53.474;9.894;2024-02-26T00:42:26;0.83;;;0.83;;
12818;SDS011;6474;53.474;9.894;2024-02-26T00:44:55;0.57;;;0.57;;
12818;SDS011;6474;53.474;9.894;2024-02-26T00:47:27;0.60;;;0.60;;
12818;SDS011;6474;53.474;9.894;2024-02-26T00:50:02;0.60;;;0.60;;
12818;SDS011;6474;53.474;9.894;2024-02-26T00:52:31;0.80;;;0.80;;
12818;SDS011;6474;53.474;9.894;2024-02-26T00:54:59;0.40;;;0.40;;
12818;SDS011;6474;53.474;9.894;2024-02-26T00:57:28;0.40;;;0.40;;
12818;SDS011;6474;53.474;9.894;2024-02-26T00:59:57;0.53;;;0.53;;
12818;SDS011;6474;53.474;9.894;2024-02-26T01:02:29;0.50;;;0.50;;
12818;SDS011;6474;53.474;9.894;2024-02-26T01:04:57;0.57;;;0.57;;
12818;SDS011;6474;53.474;9.894;2024-02-26T01:07:28;0.87;;;0.87;;
12818;SDS011;6474;53.474;9.894;2024-02-26T01:10:02;0.80;;;0.80;;
12818;SDS011;6474;53.474;9.894;2024-02-26T01:12:32;1.37;;;0.70;;
12818;SDS011;6474;53.474;9.894;2024-02-26T01:15:03;0.70;;;0.70;;
12818;SDS011;6474;53.474;9.894;2024-02-26T01:17:35;0.60;;;0.50;;
12818;SDS011;6474;53.474;9.894;2024-02-26T01:20:05;0.60;;;0.60;;
12818;SDS011;6474;53.474;9.894;2024-02-26T01:22:35;0.70;;;0.70;;
12818;SDS011;6474;53.474;9.894;2024-02-26T01:25:03;1.23;;;0.93;;
12818;SDS011;6474;53.474;9.894;2024-02-26T01:27:32;1.23;;;1.13;;
12818;SDS011;6474;53.474;9.894;2024-02-26T01:30:00;0.73;;;0.73;;
12818;SDS011;6474;53.474;9.894;2024-02-26T01:32:30;0.60;;;0.60;;
12818;SDS011;6474;53.474;9.894;2024-02-26T01:35:00;0.50;;;0.50;;
12818;SDS011;6474;53.474;9.894;2024-02-26T01:37:33;1.10;;;1.10;;
12818;SDS011;6474;53.474;9.894;2024-02-26T01:40:02;0.73;;;0.73;;
12818;SDS011;6474;53.474;9.894;2024-02-26T01:42:33;0.57;;;0.57;;
12818;SDS011;6474;53.474;9.894;2024-02-26T01:45:01;1.10;;;1.10;;
12818;SDS011;6474;53.474;9.894;2024-02-26T01:47:37;1.77;;;0.83;;
12818;SDS011;6474;53.474;9.894;2024-02-26T01:50:09;0.87;;;0.87;;
12818;SDS011;6474;53.474;9.894;2024-02-26T01:52:37;0.73;;;0.73;;
12818;SDS011;6474;53.474;9.894;2024-02-26T01:55:05;1.17;;;1.00;;
12818;SDS011;6474;53.474;9.894;2024-02-26T01:57:35;0.80;;;0.80;;
12818;SDS011;6474;53.474;9.894;2024-02-26T02:00:06;0.80;;;0.80;;
12818;SDS011;6474;53.474;9.894;2024-02-26T02:02:36;0.90;;;0.90;;
12818;SDS011;6474;53.474;9.894;2024-02-26T02:05:09;1.03;;;1.03;;
12818;SDS011;6474;53.474;9.894;2024-02-26T02:07:40;0.60;;;0.60;;
12818;SDS011;6474;53.474;9.894;2024-02-26T02:10:09;0.77;;;0.67;;
12818;SDS011;6474;53.474;9.894;2024-02-26T02:12:39;0.53;;;0.53;;
12818;SDS011;6474;53.474;9.894;2024-02-26T02:15:07;0.87;;;0.87;;
12818;SDS011;6474;53.474;9.894;2024-02-26T02:17:36;0.53;;;0.53;;
12818;SDS011;6474;53.474;9.894;2024-02-26T02:20:07;0.93;;;0.93;;
12818;SDS011;6474;53.474;9.894;2024-02-26T02:22:43;0.80;;;0.80;;
12818;SDS011;6474;53.474;9.894;2024-02-26T02:25:12;1.40;;;0.93;;
12818;SDS011;6474;53.474;9.894;2024-02-26T02:27:40;0.77;;;0.77;;
12818;SDS011;6474;53.474;9.894;2024-02-26T02:30:10;1.17;;;0.97;;
12818;SDS011;6474;53.474;9.894;2024-02-26T02:32:39;1.50;;;1.40;;
12818;SDS011;6474;53.474;9.894;2024-02-26T02:35:08;0.80;;;0.80;;
12818;SDS011;6474;53.474;9.894;2024-02-26T02:37:36;0.90;;;0.90;;
12818;SDS011;6474;53.474;9.894;2024-02-26T02:40:10;0.70;;;0.70;;
12818;SDS011;6474;53.474;9.894;2024-02-26T02:42:40;1.33;;;1.23;;
12818;SDS011;6474;53.474;9.894;2024-02-26T02:45:08;1.80;;;1.20;;
12818;SDS011;6474;53.474;9.894;2024-02-26T02:47:38;1.67;;;1.37;;
12818;SDS011;6474;53.474;9.894;2024-02-26T02:50:09;1.17;;;0.90;;
12818;SDS011;6474;53.474;9.894;2024-02-26T02:52:37;1.27;;;1.17;;
12818;SDS011;6474;53.474;9.894;2024-02-26T02:55:07;0.77;;;0.77;;
12818;SDS011;6474;53.474;9.894;2024-02-26T02:57:36;0.70;;;0.70;;
12818;SDS011;6474;53.474;9.894;2024-02-26T03:00:09;0.70;;;0.70;;
12818;SDS011;6474;53.474;9.894;2024-02-26T03:02:40;0.73;;;0.73;;
12818;SDS011;6474;53.474;9.894;2024-02-26T03:05:09;0.70;;;0.70;;
12818;SDS011;6474;53.474;9.894;2024-02-26T03:07:37;0.90;;;0.90;;
12818;SDS011;6474;53.474;9.894;2024-02-26T03:10:09;0.50;;;0.50;;
12818;SDS011;6474;53.474;9.894;2024-02-26T03:12:37;1.53;;;1.43;;
12818;SDS011;6474;53.474;9.894;2024-02-26T03:15:05;1.23;;;1.23;;
12818;SDS011;6474;53.474;9.894;2024-02-26T03:17:34;1.37;;;1.00;;
12818;SDS011;6474;53.474;9.894;2024-02-26T03:20:02;1.00;;;1.00;;
12818;SDS011;6474;53.474;9.894;2024-02-26T03:22:31;1.00;;;1.00;;
12818;SDS011;6474;53.474;9.894;2024-02-26T03:24:59;0.90;;;0.90;;
12818;SDS011;6474;53.474;9.894;2024-02-26T03:27:29;0.50;;;0.50;;
12818;SDS011;6474;53.474;9.894;2024-02-26T03:29:57;0.67;;;0.67;;
12818;SDS011;6474;53.474;9.894;2024-02-26T03:32:25;0.83;;;0.83;;
12818;SDS011;6474;53.474;9.894;2024-02-26T03:34:54;1.30;;;1.20;;
12818;SDS011;6474;53.474;9.894;2024-02-26T03:37:23;1.17;;;1.10;;
12818;SDS011;6474;53.474;9.894;2024-02-26T03:39:51;0.87;;;0.80;;
12818;SDS011;6474;53.474;9.894;2024-02-26T03:42:19;1.03;;;1.03;;
12818;SDS011;6474;53.474;9.894;2024-02-26T03:44:52;1.90;;;1.47;;
12818;SDS011;6474;53.474;9.894;2024-02-26T03:47:20;1.40;;;0.97;;
12818;SDS011;6474;53.474;9.894;2024-02-26T03:49:48;0.93;;;0.93;;
12818;SDS011;6474;53.474;9.894;2024-02-26T03:52:16;0.90;;;0.90;;
12818;SDS011;6474;53.474;9.894;2024-02-26T03:54:44;0.80;;;0.80;;
12818;SDS011;6474;53.474;9.894;2024-02-26T03:57:17;0.70;;;0.70;;
12818;SDS011;6474;53.474;9.894;2024-02-26T03:59:45;1.03;;;1.03;;
12818;SDS011;6474;53.474;9.894;2024-02-26T04:02:17;0.80;;;0.80;;
12818;SDS011;6474;53.474;9.894;2024-02-26T04:04:49;0.70;;;0.70;;
12818;SDS011;6474;53.474;9.894;2024-02-26T04:07:19;1.40;;;1.30;;
12818;SDS011;6474;53.474;9.894;2024-02-26T04:09:48;0.87;;;0.87;;
12818;SDS011;6474;53.474;9.894;2024-02-26T04:12:16;0.90;;;0.90;;
12818;SDS011;6474;53.474;9.894;2024-02-26T04:14:45;1.00;;;1.00;;
12818;SDS011;6474;53.474;9.894;2024-02-26T04:17:13;1.23;;;1.13;;
12818;SDS011;6474;53.474;9.894;2024-02-26T04:19:42;1.37;;;0.83;;
12818;SDS011;6474;53.474;9.894;2024-02-26T04:22:10;1.13;;;1.13;;
12818;SDS011;6474;53.474;9.894;2024-02-26T04:24:38;0.77;;;0.77;;
12818;SDS011;6474;53.474;9.894;2024-02-26T04:27:09;1.27;;;1.07;;
12818;SDS011;6474;53.474;9.894;2024-02-26T04:29:37;1.27;;;1.17;;
12818;SDS011;6474;53.474;9.894;2024-02-26T04:32:12;1.33;;;1.10;;
12818;SDS011;6474;53.474;9.894;2024-02-26T04:34:44;1.50;;;1.50;;
12818;SDS011;6474;53.474;9.894;2024-02-26T04:37:14;3.17;;;1.40;;
12818;SDS011;6474;53.474;9.894;2024-02-26T04:39:43;1.13;;;1.13;;
12818;SDS011;6474;53.474;9.894;2024-02-26T04:42:17;1.17;;;1.10;;
12818;SDS011;6474;53.474;9.894;2024-02-26T04:44:45;2.17;;;1.40;;
12818;SDS011;6474;53.474;9.894;2024-02-26T04:47:13;1.17;;;1.17;;
12818;SDS011;6474;53.474;9.894;2024-02-26T04:49:41;1.43;;;1.43;;
12818;SDS011;6474;53.474;9.894;2024-02-26T04:52:13;1.27;;;1.10;;
12818;SDS011;6474;53.474;9.894;2024-02-26T04:54:42;1.27;;;1.13;;
12818;SDS011;6474;53.474;9.894;2024-02-26T04:57:09;1.00;;;1.00;;
12818;SDS011;6474;53.474;9.894;2024-02-26T04:59:37;1.17;;;1.17;;
12818;SDS011;6474;53.474;9.894;2024-02-26T05:02:07;2.23;;;1.90;;
12818;SDS011;6474;53.474;9.894;2024-02-26T05:04:36;2.30;;;1.50;;
12818;SDS011;6474;53.474;9.894;2024-02-26T05:07:03;1.43;;;1.30;;
12818;SDS011;6474;53.474;9.894;2024-02-26T05:09:33;2.60;;;1.60;;
12818;SDS011;6474;53.474;9.894;2024-02-26T05:12:01;5.40;;;1.40;;
12818;SDS011;6474;53.474;9.894;2024-02-26T05:14:30;2.30;;;1.70;;
12818;SDS011;6474;53.474;9.894;2024-02-26T05:16:57;1.23;;;1.23;;
12818;SDS011;6474;53.474;9.894;2024-02-26T05:19:25;1.70;;;1.60;;
12818;SDS011;6474;53.474;9.894;2024-02-26T05:21:53;1.27;;;1.23;;
12818;SDS011;6474;53.474;9.894;2024-02-26T05:24:21;1.37;;;1.37;;
12818;SDS011;6474;53.474;9.894;2024-02-26T05:26:51;1.83;;;1.73;;
12818;SDS011;6474;53.474;9.894;2024-02-26T05:29:18;2.00;;;1.50;;
12818;SDS011;6474;53.474;9.894;2024-02-26T05:31:46;1.43;;;1.33;;
12818;SDS011;6474;53.474;9.894;2024-02-26T05:34:14;1.77;;;1.67;;
12818;SDS011;6474;53.474;9.894;2024-02-26T05:36:42;1.20;;;1.20;;
12818;SDS011;6474;53.474;9.894;2024-02-26T05:39:10;1.27;;;1.27;;
12818;SDS011;6474;53.474;9.894;2024-02-26T05:41:43;1.67;;;1.67;;
12818;SDS011;6474;53.474;9.894;2024-02-26T05:44:13;1.77;;;1.67;;
12818;SDS011;6474;53.474;9.894;2024-02-26T05:46:42;1.77;;;1.60;;
12818;SDS011;6474;53.474;9.894;2024-02-26T05:49:10;1.90;;;1.80;;
12818;SDS011;6474;53.474;9.894;2024-02-26T05:51:38;1.13;;;1.13;;
12818;SDS011;6474;53.474;9.894;2024-02-26T05:54:05;3.03;;;2.13;;
12818;SDS011;6474;53.474;9.894;2024-02-26T05:56:34;1.77;;;1.67;;
12818;SDS011;6474;53.474;9.894;2024-02-26T05:59:02;2.33;;;1.93;;
12818;SDS011;6474;53.474;9.894;2024-02-26T06:01:31;1.40;;;1.30;;
12818;SDS011;6474;53.474;9.894;2024-02-26T06:04:00;2.33;;;2.13;;
12818;SDS011;6474;53.474;9.894;2024-02-26T06:06:28;3.50;;;1.80;;
12818;SDS011;6474;53.474;9.894;2024-02-26T06:08:56;2.40;;;1.60;;
12818;SDS011;6474;53.474;9.894;2024-02-26T06:11:23;2.23;;;1.53;;
12818;SDS011;6474;53.474;9.894;2024-02-26T06:13:51;5.97;;;1.40;;
12818;SDS011;6474;53.474;9.894;2024-02-26T06:16:19;1.27;;;1.27;;
12818;SDS011;6474;53.474;9.894;2024-02-26T06:18:49;2.47;;;2.27;;
12818;SDS011;6474;53.474;9.894;2024-02-26T06:21:17;3.87;;;2.57;;
12818;SDS011;6474;53.474;9.894;2024-02-26T06:23:44;11.73;;;2.40;;
12818;SDS011;6474;53.474;9.894;2024-02-26T06:26:12;4.27;;;2.63;;
12818;SDS011;6474;53.474;9.894;2024-02-26T06:28:40;4.97;;;2.43;;
12818;SDS011;6474;53.474;9.894;2024-02-26T06:31:08;1.97;;;1.93;;
12818;SDS011;6474;53.474;9.894;2024-02-26T06:33:36;2.43;;;2.23;;
12818;SDS011;6474;53.474;9.894;2024-02-26T06:36:06;1.77;;;1.60;;
12818;SDS011;6474;53.474;9.894;2024-02-26T06:38:34;3.70;;;2.50;;
12818;SDS011;6474;53.474;9.894;2024-02-26T06:41:02;3.27;;;2.03;;
12818;SDS011;6474;53.474;9.894;2024-02-26T06:43:30;2.07;;;1.97;;
12818;SDS011;6474;53.474;9.894;2024-02-26T06:45:58;1.63;;;1.47;;
12818;SDS011;6474;53.474;9.894;2024-02-26T06:48:28;1.70;;;1.70;;
12818;SDS011;6474;53.474;9.894;2024-02-26T06:50:56;2.43;;;2.13;;
12818;SDS011;6474;53.474;9.894;2024-02-26T06:53:26;2.27;;;2.07;;
12818;SDS011;6474;53.474;9.894;2024-02-26T06:55:54;4.90;;;2.20;;
12818;SDS011;6474;53.474;9.894;2024-02-26T06:58:21;2.70;;;1.73;;
12818;SDS011;6474;53.474;9.894;2024-02-26T07:00:49;2.17;;;1.80;;
12818;SDS011;6474;53.474;9.894;2024-02-26T07:03:17;1.90;;;1.90;;
12818;SDS011;6474;53.474;9.894;2024-02-26T07:05:45;2.33;;;2.20;;
12818;SDS011;6474;53.474;9.894;2024-02-26T07:08:14;2.37;;;2.17;;
12818;SDS011;6474;53.474;9.894;2024-02-26T07:10:43;2.37;;;2.17;;
12818;SDS011;6474;53.474;9.894;2024-02-26T07:13:11;2.17;;;1.70;;
12818;SDS011;6474;53.474;9.894;2024-02-26T07:15:39;1.93;;;1.83;;
12818;SDS011;6474;53.474;9.894;2024-02-26T07:18:07;2.00;;;1.90;;
12818;SDS011;6474;53.474;9.894;2024-02-26T07:20:37;6.10;;;2.70;;
12818;SDS011;6474;53.474;9.894;2024-02-26T07:23:05;2.23;;;2.10;;
12818;SDS011;6474;53.474;9.894;2024-02-26T07:25:33;1.70;;;1.60;;
12818;SDS011;6474;53.474;9.894;2024-02-26T07:28:02;2.43;;;2.20;;
12818;SDS011;6474;53.474;9.894;2024-02-26T07:30:31;2.70;;;2.07;;
12818;SDS011;6474;53.474;9.894;2024-02-26T07:32:58;2.27;;;2.07;;
12818;SDS011;6474;53.474;9.894;2024-02-26T07:35:26;2.17;;;1.73;;
12818;SDS011;6474;53.474;9.894;2024-02-26T07:37:54;2.17;;;2.03;;
12818;SDS011;6474;53.474;9.894;2024-02-26T07:40:22;3.23;;;2.43;;
12818;SDS011;6474;53.474;9.894;2024-02-26T07:42:50;2.40;;;2.13;;
12818;SDS011;6474;53.474;9.894;2024-02-26T07:45:19;2.80;;;2.30;;
12818;SDS011;6474;53.474;9.894;2024-02-26T07:47:47;2.67;;;2.47;;
12818;SDS011;6474;53.474;9.894;2024-02-26T07:50:17;1.87;;;1.60;;
12818;SDS011;6474;53.474;9.894;2024-02-26T07:52:46;3.30;;;2.00;;
12818;SDS011;6474;53.474;9.894;2024-02-26T07:55:14;2.83;;;2.33;;
12818;SDS011;6474;53.474;9.894;2024-02-26T07:57:42;3.17;;;2.97;;
12818;SDS011;6474;53.474;9.894;2024-02-26T08:00:10;2.37;;;2.27;;
12818;SDS011;6474;53.474;9.894;2024-02-26T08:02:44;1.70;;;1.70;;
12818;SDS011;6474;53.474;9.894;2024-02-26T08:05:13;2.93;;;1.70;;
12818;SDS011;6474;53.474;9.894;2024-02-26T08:07:41;2.80;;;2.60;;
12818;SDS011;6474;53.474;9.894;2024-02-26T08:10:09;1.90;;;1.80;;
12818;SDS011;6474;53.474;9.894;2024-02-26T08:12:37;1.90;;;1.80;;
12818;SDS011;6474;53.474;9.894;2024-02-26T08:15:05;2.07;;;1.90;;
12818;SDS011;6474;53.474;9.894;2024-02-26T08:17:34;2.10;;;2.00;;
12818;SDS011;6474;53.474;9.894;2024-02-26T08:20:04;2.27;;;2.17;;
12818;SDS011;6474;53.474;9.894;2024-02-26T08:22:32;2.23;;;2.03;;
12818;SDS011;6474;53.474;9.894;2024-02-26T08:25:00;1.83;;;1.73;;
12818;SDS011;6474;53.474;9.894;2024-02-26T08:27:32;2.23;;;2.13;;
12818;SDS011;6474;53.474;9.894;2024-02-26T08:30:01;2.00;;;1.90;;
12818;SDS011;6474;53.474;9.894;2024-02-26T08:32:29;4.17;;;2.60;;
12818;SDS011;6474;53.474;9.894;2024-02-26T08:34:57;4.97;;;3.53;;
12818;SDS011;6474;53.474;9.894;2024-02-26T08:37:26;5.50;;;1.80;;
12818;SDS011;6474;53.474;9.894;2024-02-26T08:39:53;1.50;;;1.40;;
12818;SDS011;6474;53.474;9.894;2024-02-26T08:42:21;1.77;;;1.57;;
12818;SDS011;6474;53.474;9.894;2024-02-26T08:44:50;2.17;;;1.97;;
12818;SDS011;6474;53.474;9.894;2024-02-26T08:47:21;1.77;;;1.67;;
12818;SDS011;6474;53.474;9.894;2024-02-26T08:49:49;2.07;;;1.47;;
12818;SDS011;6474;53.474;9.894;2024-02-26T08:52:20;3.63;;;1.40;;
12818;SDS011;6474;53.474;9.894;2024-02-26T08:54:52;1.63;;;1.53;;
12818;SDS011;6474;53.474;9.894;2024-02-26T08:57:21;1.47;;;1.47;;
12818;SDS011;6474;53.474;9.894;2024-02-26T08:59:49;1.80;;;1.70;;
12818;SDS011;6474;53.474;9.894;2024-02-26T09:02:16;1.60;;;1.50;;
12818;SDS011;6474;53.474;9.894;2024-02-26T09:04:45;1.20;;;1.20;;
12818;SDS011;6474;53.474;9.894;2024-02-26T09:07:14;2.67;;;1.80;;
12818;SDS011;6474;53.474;9.894;2024-02-26T09:09:43;1.47;;;1.37;;
12818;SDS011;6474;53.474;9.894;2024-02-26T09:12:11;1.27;;;1.27;;
12818;SDS011;6474;53.474;9.894;2024-02-26T09:14:39;1.83;;;1.73;;
12818;SDS011;6474;53.474;9.894;2024-02-26T09:17:07;2.97;;;1.60;;
12818;SDS011;6474;53.474;9.894;2024-02-26T09:19:35;9.33;;;2.13;;
12818;SDS011;6474;53.474;9.894;2024-02-26T09:22:04;2.03;;;1.70;;
12818;SDS011;6474;53.474;9.894;2024-02-26T09:24:33;1.37;;;1.37;;
12818;SDS011;6474;53.474;9.894;2024-02-26T09:27:02;0.90;;;0.90;;
12818;SDS011;6474;53.474;9.894;2024-02-26T09:29:30;1.57;;;1.57;;
12818;SDS011;6474;53.474;9.894;2024-02-26T09:31:59;1.20;;;1.20;;
12818;SDS011;6474;53.474;9.894;2024-02-26T09:34:27;1.77;;;1.67;;
12818;SDS011;6474;53.474;9.894;2024-02-26T09:36:55;1.67;;;1.30;;
12818;SDS011;6474;53.474;9.894;2024-02-26T09:39:33;1.27;;;1.23;;
12818;SDS011;6474;53.474;9.894;2024-02-26T09:42:04;3.87;;;2.90;;
12818;SDS011;6474;53.474;9.894;2024-02-26T09:44:32;5.20;;;2.60;;
12818;SDS011;6474;53.474;9.894;2024-02-26T09:47:04;13.67;;;2.67;;
12818;SDS011;6474;53.474;9.894;2024-02-26T09:49:35;3.40;;;1.83;;
12818;SDS011;6474;53.474;9.894;2024-02-26T09:52:06;1.60;;;1.40;;
12818;SDS011;6474;53.474;9.894;2024-02-26T09:54:35;1.20;;;1.20;;
12818;SDS011;6474;53.474;9.894;2024-02-26T09:57:05;1.33;;;1.33;;
12818;SDS011;6474;53.474;9.894;2024-02-26T09:59:41;1.33;;;1.33;;
12818;SDS011;6474;53.474;9.894;2024-02-26T10:02:11;1.93;;;1.53;;
12818;SDS011;6474;53.474;9.894;2024-02-26T10:04:40;1.17;;;1.17;;
12818;SDS011;6474;53.474;9.894;2024-02-26T10:07:14;1.60;;;1.60;;
12818;SDS011;6474;53.474;9.894;2024-02-26T10:09:44;1.83;;;1.73;;
12818;SDS011;6474;53.474;9.894;2024-02-26T10:12:13;1.50;;;1.40;;
12818;SDS011;6474;53.474;9.894;2024-02-26T10:14:43;3.00;;;2.27;;
12818;SDS011;6474;53.474;9.894;2024-02-26T10:17:11;1.40;;;1.40;;
12818;SDS011;6474;53.474;9.894;2024-02-26T10:19:39;1.43;;;1.43;;
12818;SDS011;6474;53.474;9.894;2024-02-26T10:22:07;1.63;;;1.43;;
12818;SDS011;6474;53.474;9.894;2024-02-26T10:24:35;1.10;;;1.10;;
12818;SDS011;6474;53.474;9.894;2024-02-26T10:27:04;1.37;;;1.37;;
12818;SDS011;6474;53.474;9.894;2024-02-26T10:29:34;1.17;;;1.17;;
12818;SDS011;6474;53.474;9.894;2024-02-26T10:32:02;1.53;;;1.53;;
12818;SDS011;6474;53.474;9.894;2024-02-26T10:34:31;1.00;;;1.00;;
12818;SDS011;6474;53.474;9.894;2024-02-26T10:37:00;2.40;;;1.97;;
12818;SDS011;6474;53.474;9.894;2024-02-26T10:39:29;1.40;;;1.30;;
12818;SDS011;6474;53.474;9.894;2024-02-26T10:41:56;1.27;;;1.27;;
12818;SDS011;6474;53.474;9.894;2024-02-26T10:44:25;1.57;;;1.47;;
12818;SDS011;6474;53.474;9.894;2024-02-26T10:46:54;1.00;;;1.00;;
12818;SDS011;6474;53.474;9.894;2024-02-26T10:49:23;1.63;;;1.50;;
12818;SDS011;6474;53.474;9.894;2024-02-26T10:51:52;1.63;;;1.53;;
12818;SDS011;6474;53.474;9.894;2024-02-26T10:54:23;1.03;;;1.03;;
12818;SDS011;6474;53.474;9.894;2024-02-26T10:56:53;1.13;;;1.13;;
12818;SDS011;6474;53.474;9.894;2024-02-26T10:59:23;1.33;;;1.33;;
12818;SDS011;6474;53.474;9.894;2024-02-26T11:01:51;0.97;;;0.93;;
12818;SDS011;6474;53.474;9.894;2024-02-26T11:04:21;1.47;;;1.43;;
12818;SDS011;6474;53.474;9.894;2024-02-26T11:06:51;1.23;;;1.17;;
12818;SDS011;6474;53.474;9.894;2024-02-26T11:09:21;1.77;;;1.30;;
12818;SDS011;6474;53.474;9.894;2024-02-26T11:11:50;1.97;;;1.87;;
12818;SDS011;6474;53.474;9.894;2024-02-26T11:14:21;1.00;;;0.93;;
12818;SDS011;6474;53.474;9.894;2024-02-26T11:16:52;1.70;;;1.60;;
12818;SDS011;6474;53.474;9.894;2024-02-26T11:19:22;1.60;;;1.50;;
12818;SDS011;6474;53.474;9.894;2024-02-26T11:21:53;1.83;;;1.73;;
12818;SDS011;6474;53.474;9.894;2024-02-26T11:24:21;1.73;;;1.20;;
12818;SDS011;6474;53.474;9.894;2024-02-26T11:26:49;2.30;;;1.70;;
12818;SDS011;6474;53.474;9.894;2024-02-26T11:29:25;6.43;;;3.47;;
12818;SDS011;6474;53.474;9.894;2024-02-26T11:32:08;2.53;;;1.90;;
12818;SDS011;6474;53.474;9.894;2024-02-26T11:34:38;1.03;;;1.03;;
12818;SDS011;6474;53.474;9.894;2024-02-26T11:37:09;2.83;;;2.50;;
12818;SDS011;6474;53.474;9.894;2024-02-26T11:39:39;1.00;;;1.00;;
12818;SDS011;6474;53.474;9.894;2024-02-26T11:42:07;2.10;;;1.70;;
12818;SDS011;6474;53.474;9.894;2024-02-26T11:44:37;1.47;;;1.37;;
12818;SDS011;6474;53.474;9.894;2024-02-26T11:47:11;2.10;;;1.13;;
12818;SDS011;6474;53.474;9.894;2024-02-26T11:49:43;3.00;;;1.70;;
12818;SDS011;6474;53.474;9.894;2024-02-26T11:52:12;1.17;;;1.17;;
12818;SDS011;6474;53.474;9.894;2024-02-26T11:54:44;3.40;;;1.60;;
12818;SDS011;6474;53.474;9.894;2024-02-26T11:57:20;5.03;;;3.00;;
12818;SDS011;6474;53.474;9.894;2024-02-26T11:59:53;2.00;;;1.70;;
12818;SDS011;6474;53.474;9.894;2024-02-26T12:02:37;1.83;;;1.67;;
12818;SDS011;6474;53.474;9.894;2024-02-26T12:05:13;1.77;;;1.67;;
12818;SDS011;6474;53.474;9.894;2024-02-26T12:07:47;1.40;;;1.30;;
12818;SDS011;6474;53.474;9.894;2024-02-26T12:10:20;2.30;;;1.27;;
12818;SDS011;6474;53.474;9.894;2024-02-26T12:12:53;0.90;;;0.90;;
12818;SDS011;6474;53.474;9.894;2024-02-26T12:15:31;1.60;;;1.60;;
12818;SDS011;6474;53.474;9.894;2024-02-26T12:18:01;2.43;;;2.23;;
12818;SDS011;6474;53.474;9.894;2024-02-26T12:20:31;2.23;;;1.63;;
12818;SDS011;6474;53.474;9.894;2024-02-26T12:22:59;1.67;;;1.57;;
12818;SDS011;6474;53.474;9.894;2024-02-26T12:25:27;2.30;;;2.20;;
12818;SDS011;6474;53.474;9.894;2024-02-26T12:27:56;1.47;;;1.37;;
12818;SDS011;6474;53.474;9.894;2024-02-26T12:30:24;1.83;;;1.73;;
12818;SDS011;6474;53.474;9.894;2024-02-26T12:32:56;1.93;;;1.73;;
12818;SDS011;6474;53.474;9.894;2024-02-26T12:35:26;1.83;;;1.70;;
12818;SDS011;6474;53.474;9.894;2024-02-26T12:37:56;1.20;;;1.20;;
12818;SDS011;6474;53.474;9.894;2024-02-26T12:40:24;2.23;;;1.83;;
12818;SDS011;6474;53.474;9.894;2024-02-26T12:42:52;2.33;;;1.17;;
12818;SDS011;6474;53.474;9.894;2024-02-26T12:45:21;1.80;;;1.70;;
12818;SDS011;6474;53.474;9.894;2024-02-26T12:47:49;1.30;;;1.03;;
12818;SDS011;6474;53.474;9.894;2024-02-26T12:50:17;2.43;;;1.60;;
12818;SDS011;6474;53.474;9.894;2024-02-26T12:52:45;0.93;;;0.93;;
12818;SDS011;6474;53.474;9.894;2024-02-26T12:55:16;1.20;;;1.20;;
12818;SDS011;6474;53.474;9.894;2024-02-26T12:57:46;2.93;;;1.53;;
12818;SDS011;6474;53.474;9.894;2024-02-26T13:00:16;1.27;;;1.27;;
12818;SDS011;6474;53.474;9.894;2024-02-26T13:02:46;1.80;;;1.70;;
12818;SDS011;6474;53.474;9.894;2024-02-26T13:05:15;1.40;;;1.23;;
12818;SDS011;6474;53.474;9.894;2024-02-26T13:07:45;1.50;;;1.33;;
12818;SDS011;6474;53.474;9.894;2024-02-26T13:10:13;2.47;;;1.30;;
12818;SDS011;6474;53.474;9.894;2024-02-26T13:12:44;1.40;;;1.30;;
12818;SDS011;6474;53.474;9.894;2024-02-26T13:15:16;1.37;;;1.33;;
12818;SDS011;6474;53.474;9.894;2024-02-26T13:17:45;1.40;;;1.40;;
12818;SDS011;6474;53.474;9.894;2024-02-26T13:20:25;1.57;;;1.57;;
12818;SDS011;6474;53.474;9.894;2024-02-26T13:22:59;1.20;;;1.20;;
12818;SDS011;6474;53.474;9.894;2024-02-26T13:25:29;1.57;;;0.97;;
12818;SDS011;6474;53.474;9.894;2024-02-26T13:28:07;1.83;;;1.73;;
12818;SDS011;6474;53.474;9.894;2024-02-26T13:30:36;1.30;;;1.30;;
12818;SDS011;6474;53.474;9.894;2024-02-26T13:33:07;1.67;;;1.57;;
12818;SDS011;6474;53.474;9.894;2024-02-26T13:35:36;1.00;;;1.00;;
12818;SDS011;6474;53.474;9.894;2024-02-26T13:38:05;8.60;;;1.97;;
12818;SDS011;6474;53.474;9.894;2024-02-26T13:40:34;1.70;;;1.10;;
12818;SDS011;6474;53.474;9.894;2024-02-26T13:43:02;0.83;;;0.83;;
12818;SDS011;6474;53.474;9.894;2024-02-26T13:45:33;1.20;;;1.20;;
12818;SDS011;6474;53.474;9.894;2024-02-26T13:48:02;1.27;;;1.27;;
12818;SDS011;6474;53.474;9.894;2024-02-26T13:50:31;1.10;;;1.10;;
12818;SDS011;6474;53.474;9.894;2024-02-26T13:53:00;1.27;;;1.27;;
12818;SDS011;6474;53.474;9.894;2024-02-26T13:55:28;2.83;;;1.60;;
12818;SDS011;6474;53.474;9.894;2024-02-26T13:57:59;3.30;;;2.50;;
12818;SDS011;6474;53.474;9.894;2024-02-26T14:00:28;1.30;;;1.20;;
12818;SDS011;6474;53.474;9.894;2024-02-26T14:02:58;1.80;;;1.47;;
12818;SDS011;6474;53.474;9.894;2024-02-26T14:05:26;1.10;;;1.10;;
12818;SDS011;6474;53.474;9.894;2024-02-26T14:07:54;1.53;;;1.20;;
12818;SDS011;6474;53.474;9.894;2024-02-26T14:10:22;0.90;;;0.90;;
12818;SDS011;6474;53.474;9.894;2024-02-26T14:12:50;2.53;;;1.60;;
12818;SDS011;6474;53.474;9.894;2024-02-26T14:15:20;1.30;;;1.07;;
12818;SDS011;6474;53.474;9.894;2024-02-26T14:17:48;1.17;;;1.17;;
12818;SDS011;6474;53.474;9.894;2024-02-26T14:20:20;2.17;;;0.90;;
12818;SDS011;6474;53.474;9.894;2024-02-26T14:22:49;1.60;;;1.50;;
12818;SDS011;6474;53.474;9.894;2024-02-26T14:25:19;1.13;;;1.13;;
12818;SDS011;6474;53.474;9.894;2024-02-26T14:27:47;4.40;;;1.73;;
12818;SDS011;6474;53.474;9.894;2024-02-26T14:30:15;1.27;;;1.27;;
12818;SDS011;6474;53.474;9.894;2024-02-26T14:32:45;0.60;;;0.60;;
12818;SDS011;6474;53.474;9.894;2024-02-26T14:35:13;4.30;;;2.10;;
12818;SDS011;6474;53.474;9.894;2024-02-26T14:37:43;3.03;;;1.50;;
12818;SDS011;6474;53.474;9.894;2024-02-26T14:40:14;2.10;;;1.90;;
12818;SDS011;6474;53.474;9.894;2024-02-26T14:42:42;2.30;;;2.17;;
12818;SDS011;6474;53.474;9.894;2024-02-26T14:45:10;2.87;;;1.23;;
12818;SDS011;6474;53.474;9.894;2024-02-26T14:47:38;1.57;;;1.47;;
12818;SDS011;6474;53.474;9.894;2024-02-26T14:50:08;1.00;;;1.00;;
12818;SDS011;6474;53.474;9.894;2024-02-26T14:52:37;3.30;;;1.80;;
12818;SDS011;6474;53.474;9.894;2024-02-26T14:55:05;1.67;;;1.57;;
12818;SDS011;6474;53.474;9.894;2024-02-26T14:57:34;1.57;;;1.47;;
12818;SDS011;6474;53.474;9.894;2024-02-26T15:00:02;1.33;;;1.33;;
12818;SDS011;6474;53.474;9.894;2024-02-26T15:02:32;1.27;;;1.27;;
12818;SDS011;6474;53.474;9.894;2024-02-26T15:05:00;3.17;;;1.80;;
12818;SDS011;6474;53.474;9.894;2024-02-26T15:07:29;1.47;;;1.17;;
12818;SDS011;6474;53.474;9.894;2024-02-26T15:09:57;1.17;;;1.07;;
12818;SDS011;6474;53.474;9.894;2024-02-26T15:12:27;1.70;;;1.53;;